Terminal Aerodrome Forecast
Issued by NWS

Home | Current Version | Previous Version | Text Only | Print | Product List | Glossary On
Versions: 1 2 3 4 5 6 7 8 9 10 11 12 13 14 15 16 17 18 19 20 21 22 23 24 25 26 27 28 29
005
FTUS43 KLOT 051120
TAFORD
TAF
KORD 051120Z 0512/0618 36012KT P6SM FEW020 SCT060
     FM052000 04009KT P6SM FEW040
     FM060100 VRB03KT P6SM FEW250
     FM061400 24009KT P6SM SCT120=

USA.gov is the U.S. government's official web portal to all federal, state and local government web resources and services.